createdAt,value
2023-05-06T00:00:02.004Z,12.70
2023-05-06T00:00:12.016Z,11.30
2023-05-06T00:00:22.041Z,12.70
2023-05-06T00:00:32.086Z,14.50
2023-05-06T00:00:42.086Z,15.60
2023-05-06T00:00:52.259Z,13.40
2023-05-06T00:01:02.263Z,13.10
2023-05-06T00:01:12.273Z,13.90
2023-05-06T00:01:22.259Z,15.50
2023-05-06T00:01:32.433Z,15.10
2023-05-06T00:01:42.457Z,13.80
2023-05-06T00:01:52.471Z,13.60
2023-05-06T00:02:02.648Z,13.30
2023-05-06T00:02:12.647Z,11.30
2023-05-06T00:02:22.693Z,11.30
2023-05-06T00:02:32.952Z,10.00
2023-05-06T00:02:43.051Z,9.60
2023-05-06T00:02:53.146Z,10.90
2023-05-06T00:03:03.223Z,11.70
2023-05-06T00:03:13.394Z,14.20
2023-05-06T00:03:23.345Z,12.60
2023-05-06T00:03:33.562Z,12.00
2023-05-06T00:03:43.781Z,9.10
2023-05-06T00:03:53.727Z,9.40
2023-05-06T00:04:03.921Z,10.50
2023-05-06T00:04:13.800Z,12.70
2023-05-06T00:04:23.833Z,12.70
2023-05-06T00:04:33.879Z,11.90
2023-05-06T00:04:43.938Z,12.60
2023-05-06T00:04:54.064Z,14.60
2023-05-06T00:05:03.925Z,15.80
2023-05-06T00:05:13.926Z,14.60
2023-05-06T00:05:23.945Z,12.80
2023-05-06T00:05:33.963Z,11.90
2023-05-06T00:05:44.102Z,11.90
2023-05-06T00:05:54.112Z,12.70
2023-05-06T00:06:04.279Z,12.90
2023-05-06T00:06:14.285Z,12.70
2023-05-06T00:06:24.304Z,14.80
2023-05-06T00:06:34.327Z,14.10
2023-05-06T00:06:44.493Z,15.40
2023-05-06T00:06:54.496Z,13.90
2023-05-06T00:07:04.550Z,14.90
2023-05-06T00:07:14.574Z,15.20
2023-05-06T00:07:24.579Z,13.90
2023-05-06T00:07:34.618Z,14.50
2023-05-06T00:07:44.619Z,12.10
2023-05-06T00:07:54.645Z,11.80
2023-05-06T00:08:04.635Z,10.80
2023-05-06T00:08:14.627Z,11.80
2023-05-06T00:08:24.841Z,15.00
2023-05-06T00:08:34.852Z,14.70
2023-05-06T00:08:45.045Z,15.20
2023-05-06T00:08:55.052Z,12.70
2023-05-06T00:09:05.222Z,15.70
2023-05-06T00:09:15.216Z,16.20
2023-05-06T00:09:25.388Z,16.70
2023-05-06T00:09:35.472Z,13.60
2023-05-06T00:09:45.653Z,12.20
2023-05-06T00:09:55.651Z,12.10
2023-05-06T00:10:05.822Z,12.80
2023-05-06T00:10:15.825Z,13.70
2023-05-06T00:10:25.830Z,14.20
2023-05-06T00:10:36.002Z,14.30
2023-05-06T00:10:46.233Z,14.10
2023-05-06T00:10:56.270Z,13.80
2023-05-06T00:11:06.275Z,12.60
2023-05-06T00:11:16.287Z,12.70
2023-05-06T00:11:26.305Z,10.80
2023-05-06T00:11:36.311Z,14.30
2023-05-06T00:11:46.524Z,15.20
2023-05-06T00:11:56.513Z,16.70
2023-05-06T00:12:06.538Z,15.80
2023-05-06T00:12:16.592Z,14.80
2023-05-06T00:12:26.606Z,16.60
2023-05-06T00:12:36.765Z,15.70
2023-05-06T00:12:46.773Z,15.40
2023-05-06T00:12:56.800Z,15.60
2023-05-06T00:13:06.877Z,15.10
2023-05-06T00:13:16.936Z,18.20
2023-05-06T00:13:26.949Z,15.90
2023-05-06T00:13:36.967Z,15.20
2023-05-06T00:13:47.002Z,12.90
2023-05-06T00:13:57.029Z,11.80
2023-05-06T00:14:07.091Z,13.20
2023-05-06T00:14:17.139Z,13.00
2023-05-06T00:14:27.169Z,12.80
2023-05-06T00:14:37.210Z,13.60
2023-05-06T00:14:47.227Z,12.80
2023-05-06T00:14:57.288Z,14.80
2023-05-06T00:15:07.708Z,13.60
2023-05-06T00:15:17.446Z,14.60
2023-05-06T00:15:29.147Z,13.50
2023-05-06T00:15:37.663Z,12.40
2023-05-06T00:15:47.683Z,11.30
2023-05-06T00:15:57.733Z,12.20
2023-05-06T00:16:07.748Z,14.70
2023-05-06T00:16:17.811Z,16.80
2023-05-06T00:16:27.801Z,15.80
2023-05-06T00:16:37.951Z,13.70
2023-05-06T00:16:48.102Z,11.20
2023-05-06T00:16:57.963Z,11.60
2023-05-06T00:17:08.006Z,13.50
2023-05-06T00:17:18.085Z,13.90
2023-05-06T00:17:28.205Z,14.40
2023-05-06T00:17:38.229Z,13.20
2023-05-06T00:17:48.257Z,13.60
2023-05-06T00:17:58.336Z,12.90
2023-05-06T00:18:08.425Z,13.30
2023-05-06T00:18:18.484Z,14.00
2023-05-06T00:18:28.511Z,17.30
2023-05-06T00:18:38.544Z,16.00
2023-05-06T00:18:48.569Z,15.70
2023-05-06T00:18:58.588Z,16.60
2023-05-06T00:19:08.604Z,16.80
2023-05-06T00:19:18.636Z,16.90
2023-05-06T00:19:28.669Z,13.10
2023-05-06T00:19:38.720Z,13.40
2023-05-06T00:19:48.753Z,12.50
2023-05-06T00:19:58.798Z,11.70
2023-05-06T00:20:08.829Z,13.00
2023-05-06T00:20:18.873Z,13.20
2023-05-06T00:20:28.884Z,13.90
2023-05-06T00:20:38.917Z,12.50
2023-05-06T00:20:48.951Z,13.70
2023-05-06T00:20:58.980Z,13.50
2023-05-06T00:21:08.993Z,15.10
2023-05-06T00:21:19.012Z,14.40
2023-05-06T00:21:29.090Z,16.70
2023-05-06T00:21:39.134Z,16.10
2023-05-06T00:21:49.186Z,17.30
2023-05-06T00:21:59.204Z,16.10
2023-05-06T00:22:09.235Z,16.00
2023-05-06T00:22:19.268Z,15.70
2023-05-06T00:22:29.299Z,15.20
2023-05-06T00:22:39.320Z,14.00
2023-05-06T00:22:49.356Z,14.90
2023-05-06T00:22:59.378Z,13.80
2023-05-06T00:23:09.419Z,14.90
2023-05-06T00:23:19.425Z,13.00
2023-05-06T00:23:29.471Z,13.40
2023-05-06T00:23:39.520Z,15.30
2023-05-06T00:23:49.542Z,15.50
2023-05-06T00:23:59.573Z,15.90
2023-05-06T00:24:09.597Z,13.40
2023-05-06T00:24:19.621Z,12.40
2023-05-06T00:24:29.650Z,11.40
2023-05-06T00:24:39.677Z,12.80
2023-05-06T00:24:49.693Z,13.70
2023-05-06T00:24:59.719Z,15.90
2023-05-06T00:25:09.858Z,14.30
2023-05-06T00:25:19.850Z,15.50
2023-05-06T00:25:29.847Z,14.50
2023-05-06T00:25:39.872Z,15.70
2023-05-06T00:25:49.934Z,14.60
2023-05-06T00:25:59.963Z,13.90
2023-05-06T00:26:10.003Z,12.50
2023-05-06T00:26:20.015Z,12.10
2023-05-06T00:26:30.045Z,12.20
2023-05-06T00:26:40.057Z,12.00
2023-05-06T00:26:50.075Z,12.60
2023-05-06T00:27:00.179Z,13.70
2023-05-06T00:27:10.192Z,14.30
2023-05-06T00:27:20.210Z,16.70
2023-05-06T00:27:30.238Z,15.50
2023-05-06T00:27:40.257Z,14.10
2023-05-06T00:27:50.297Z,13.00
2023-05-06T00:28:00.294Z,15.10
2023-05-06T00:28:10.327Z,16.70
2023-05-06T00:28:20.351Z,17.70
2023-05-06T00:28:30.371Z,16.40
2023-05-06T00:28:40.394Z,16.00
2023-05-06T00:28:50.414Z,15.00
2023-05-06T00:29:00.443Z,14.80
2023-05-06T00:29:10.492Z,15.10
2023-05-06T00:29:20.564Z,16.20
2023-05-06T00:29:30.593Z,14.10
2023-05-06T00:29:40.613Z,15.30
2023-05-06T00:29:50.622Z,13.10
2023-05-06T00:30:00.765Z,15.90
2023-05-06T00:30:10.775Z,17.60
2023-05-06T00:30:20.881Z,17.00
2023-05-06T00:30:30.943Z,15.60
2023-05-06T00:30:40.971Z,13.90
2023-05-06T00:30:51.009Z,16.80
2023-05-06T00:31:01.074Z,17.00
2023-05-06T00:31:11.211Z,16.40
2023-05-06T00:31:21.290Z,13.90
2023-05-06T00:31:31.354Z,14.20
2023-05-06T00:31:41.368Z,14.80
2023-05-06T00:31:51.427Z,15.50
2023-05-06T00:32:01.490Z,14.60
2023-05-06T00:32:11.682Z,15.40
2023-05-06T00:32:21.693Z,16.20
2023-05-06T00:32:31.738Z,16.20
2023-05-06T00:32:41.888Z,15.90
2023-05-06T00:32:51.811Z,15.20
2023-05-06T00:33:01.879Z,15.40
2023-05-06T00:33:11.889Z,16.50
2023-05-06T00:33:21.947Z,15.50
2023-05-06T00:33:31.987Z,16.10
2023-05-06T00:33:42.021Z,14.80
2023-05-06T00:33:52.057Z,15.70
2023-05-06T00:34:02.090Z,15.10
2023-05-06T00:34:12.184Z,12.90
2023-05-06T00:34:22.210Z,11.90
2023-05-06T00:34:32.230Z,12.10
2023-05-06T00:34:42.263Z,14.40
2023-05-06T00:34:52.285Z,17.20
2023-05-06T00:35:02.319Z,15.80
2023-05-06T00:35:12.383Z,14.80
2023-05-06T00:35:22.456Z,11.80
2023-05-06T00:35:32.441Z,12.20
2023-05-06T00:35:42.486Z,11.20
2023-05-06T00:35:52.543Z,12.00
2023-05-06T00:36:02.553Z,14.00
2023-05-06T00:36:12.576Z,14.80
2023-05-06T00:36:22.573Z,14.60
2023-05-06T00:36:32.600Z,12.90
2023-05-06T00:36:42.628Z,18.40
2023-05-06T00:36:52.671Z,18.00
2023-05-06T00:37:02.693Z,20.30
2023-05-06T00:37:12.715Z,15.80
2023-05-06T00:37:22.826Z,18.20
2023-05-06T00:37:32.862Z,16.60
2023-05-06T00:37:42.878Z,16.50
2023-05-06T00:37:52.924Z,14.80
2023-05-06T00:38:02.966Z,13.60
2023-05-06T00:38:12.989Z,13.90
2023-05-06T00:38:23.035Z,15.10
2023-05-06T00:38:33.060Z,15.60
2023-05-06T00:38:43.086Z,14.90
2023-05-06T00:38:53.218Z,13.70
2023-05-06T00:39:03.266Z,14.50
2023-05-06T00:39:13.282Z,14.80
2023-05-06T00:39:23.449Z,14.40
2023-05-06T00:39:33.470Z,15.20
2023-05-06T00:39:43.468Z,14.30
2023-05-06T00:39:53.494Z,13.70
2023-05-06T00:40:03.548Z,12.30
2023-05-06T00:40:13.631Z,13.00
2023-05-06T00:40:23.628Z,14.50
2023-05-06T00:40:33.690Z,13.60
2023-05-06T00:40:43.670Z,12.50
2023-05-06T00:40:53.687Z,11.50
2023-05-06T00:41:03.704Z,11.50
2023-05-06T00:41:13.718Z,12.40
2023-05-06T00:41:23.736Z,13.70
2023-05-06T00:41:33.762Z,13.40
2023-05-06T00:41:43.759Z,14.00
2023-05-06T00:41:53.774Z,13.10
2023-05-06T00:42:03.789Z,12.80
2023-05-06T00:42:13.798Z,12.40
2023-05-06T00:42:23.819Z,12.30
2023-05-06T00:42:33.877Z,13.90
2023-05-06T00:42:43.874Z,15.80
2023-05-06T00:42:53.911Z,17.70
2023-05-06T00:43:03.950Z,17.50
2023-05-06T00:43:13.997Z,14.90
2023-05-06T00:43:24.007Z,11.70
2023-05-06T00:43:34.027Z,10.90
2023-05-06T00:43:44.040Z,12.90
2023-05-06T00:43:54.086Z,13.30
2023-05-06T00:44:04.146Z,13.70
2023-05-06T00:44:14.162Z,12.50
2023-05-06T00:44:24.199Z,13.60
2023-05-06T00:44:34.265Z,12.80
2023-05-06T00:44:44.298Z,13.70
2023-05-06T00:44:54.307Z,13.70
2023-05-06T00:45:04.347Z,15.00
2023-05-06T00:45:14.371Z,14.90
2023-05-06T00:45:24.422Z,12.50
2023-05-06T00:45:34.499Z,10.20
2023-05-06T00:45:44.530Z,9.10
2023-05-06T00:45:54.579Z,11.00
2023-05-06T00:46:04.626Z,11.90
2023-05-06T00:46:14.631Z,13.90
2023-05-06T00:46:24.702Z,13.10
2023-05-06T00:46:34.733Z,13.10
2023-05-06T00:46:44.755Z,12.50
2023-05-06T00:46:54.874Z,11.80
2023-05-06T00:47:04.910Z,11.80
2023-05-06T00:47:14.941Z,11.30
2023-05-06T00:47:24.972Z,12.10
2023-05-06T00:47:35.044Z,11.80
2023-05-06T00:47:45.067Z,11.70
2023-05-06T00:47:55.097Z,13.50
2023-05-06T00:48:05.214Z,14.40
2023-05-06T00:48:15.282Z,14.40
2023-05-06T00:48:25.258Z,12.30
2023-05-06T00:48:35.266Z,11.00
2023-05-06T00:48:45.330Z,11.60
2023-05-06T00:48:55.335Z,10.90
2023-05-06T00:49:05.358Z,10.30
2023-05-06T00:49:15.387Z,10.10
2023-05-06T00:49:25.409Z,12.20
2023-05-06T00:49:35.445Z,12.40
2023-05-06T00:49:45.498Z,14.10
2023-05-06T00:49:55.511Z,12.20
2023-05-06T00:50:05.551Z,13.00
2023-05-06T00:50:15.594Z,10.70
2023-05-06T00:50:25.710Z,12.50
2023-05-06T00:50:35.744Z,14.20
2023-05-06T00:50:45.766Z,14.50
2023-05-06T00:50:55.787Z,14.90
2023-05-06T00:51:05.804Z,14.70
2023-05-06T00:51:15.828Z,14.40
2023-05-06T00:51:25.855Z,15.20
2023-05-06T00:51:35.878Z,14.00
2023-05-06T00:51:45.903Z,15.00
2023-05-06T00:51:55.940Z,13.90
2023-05-06T00:52:06.002Z,14.00
2023-05-06T00:52:16.029Z,14.80
2023-05-06T00:52:26.067Z,13.80
2023-05-06T00:52:36.087Z,12.60
2023-05-06T00:52:46.114Z,10.30
2023-05-06T00:52:56.125Z,9.40
2023-05-06T00:53:06.182Z,9.90
2023-05-06T00:53:16.209Z,11.50
2023-05-06T00:53:26.242Z,10.90
2023-05-06T00:53:36.279Z,11.30
2023-05-06T00:53:46.297Z,12.10
2023-05-06T00:53:56.345Z,11.80
2023-05-06T00:54:06.386Z,12.70
2023-05-06T00:54:16.394Z,10.70
2023-05-06T00:54:26.439Z,12.30
2023-05-06T00:54:36.473Z,11.30
2023-05-06T00:54:46.499Z,12.70
2023-05-06T00:54:56.522Z,11.60
2023-05-06T00:55:06.607Z,12.00
2023-05-06T00:55:16.588Z,11.10
2023-05-06T00:55:26.602Z,10.40
2023-05-06T00:55:36.619Z,9.50
2023-05-06T00:55:46.662Z,9.40
2023-05-06T00:55:56.665Z,12.00
2023-05-06T00:56:06.733Z,12.70
2023-05-06T00:56:17.518Z,14.20
2023-05-06T00:56:26.825Z,12.70
2023-05-06T00:56:36.862Z,12.90
2023-05-06T00:56:46.914Z,11.10
2023-05-06T00:56:56.911Z,10.90
2023-05-06T00:57:06.948Z,10.60
2023-05-06T00:57:16.978Z,12.00
2023-05-06T00:57:27.039Z,12.90
2023-05-06T00:57:37.054Z,14.30
2023-05-06T00:57:47.074Z,12.70
2023-05-06T00:57:57.092Z,12.40
2023-05-06T00:58:07.104Z,11.10
2023-05-06T00:58:17.123Z,11.40
2023-05-06T00:58:27.131Z,12.80
2023-05-06T00:58:37.156Z,13.90
2023-05-06T00:58:47.210Z,14.90
2023-05-06T00:58:57.250Z,16.10
2023-05-06T00:59:07.282Z,15.80
2023-05-06T00:59:17.305Z,14.90
2023-05-06T00:59:27.364Z,11.40
2023-05-06T00:59:37.385Z,12.70
2023-05-06T00:59:47.562Z,14.30
2023-05-06T00:59:57.575Z,15.10
2023-05-06T01:00:07.615Z,13.00
2023-05-06T01:00:17.643Z,13.70
2023-05-06T01:00:27.678Z,13.60
2023-05-06T01:00:37.712Z,13.10
2023-05-06T01:00:47.768Z,12.70
2023-05-06T01:00:57.817Z,13.70
2023-05-06T01:01:07.918Z,13.50
2023-05-06T01:01:17.989Z,11.80
2023-05-06T01:01:28.056Z,11.80
2023-05-06T01:01:38.200Z,14.70
2023-05-06T01:01:48.231Z,16.90
2023-05-06T01:01:58.237Z,15.90
2023-05-06T01:02:08.300Z,13.90
2023-05-06T01:02:18.317Z,11.80
2023-05-06T01:02:36.410Z,12.20
2023-05-06T01:02:47.137Z,10.80
2023-05-06T01:02:50.342Z,11.00
2023-05-06T01:03:00.530Z,11.70
2023-05-06T01:03:10.612Z,12.70
2023-05-06T01:03:20.718Z,11.70
2023-05-06T01:03:30.861Z,12.10
2023-05-06T01:03:40.933Z,12.00
2023-05-06T01:03:51.032Z,12.90
2023-05-06T01:04:01.188Z,11.40
2023-05-06T01:04:11.312Z,12.60
2023-05-06T01:04:21.347Z,14.80
2023-05-06T01:04:31.379Z,16.70
2023-05-06T01:04:41.417Z,16.90
2023-05-06T01:04:51.570Z,16.60
2023-05-06T01:05:01.696Z,16.40
2023-05-06T01:05:11.956Z,16.00
2023-05-06T01:05:21.770Z,13.70
2023-05-06T01:05:31.796Z,13.80
2023-05-06T01:05:41.815Z,13.90
2023-05-06T01:05:51.844Z,15.20
2023-05-06T01:06:01.860Z,14.50
2023-05-06T01:06:11.900Z,14.60
2023-05-06T01:06:22.067Z,14.90
2023-05-06T01:06:32.113Z,15.00
2023-05-06T01:06:42.158Z,15.40
2023-05-06T01:06:52.151Z,13.40
2023-05-06T01:07:02.164Z,11.80
2023-05-06T01:07:12.180Z,10.90
2023-05-06T01:07:22.194Z,11.40
2023-05-06T01:07:32.211Z,12.70
2023-05-06T01:07:42.285Z,12.40
2023-05-06T01:07:52.326Z,11.10
2023-05-06T01:08:02.336Z,10.60
2023-05-06T01:08:12.362Z,11.00
2023-05-06T01:08:22.371Z,14.00
2023-05-06T01:08:32.410Z,14.00
2023-05-06T01:08:42.400Z,14.10
2023-05-06T01:08:52.407Z,12.70
2023-05-06T01:09:02.417Z,11.10
2023-05-06T01:09:12.443Z,10.30
2023-05-06T01:09:22.468Z,10.30
2023-05-06T01:09:32.486Z,11.70
2023-05-06T01:09:42.515Z,12.90
2023-05-06T01:09:52.543Z,13.10
2023-05-06T01:10:07.632Z,13.90
2023-05-06T01:10:17.664Z,12.00
2023-05-06T01:10:27.737Z,10.60
2023-05-06T01:10:37.782Z,12.20
2023-05-06T01:10:47.810Z,13.80
2023-05-06T01:10:57.856Z,14.30
2023-05-06T01:11:07.914Z,13.00
2023-05-06T01:11:17.969Z,12.90
2023-05-06T01:11:28.046Z,12.30
2023-05-06T01:11:38.086Z,13.40
2023-05-06T01:11:48.122Z,13.30
2023-05-06T01:11:58.182Z,14.70
2023-05-06T01:12:08.200Z,14.30
2023-05-06T01:12:18.325Z,13.30
2023-05-06T01:12:28.368Z,12.10
2023-05-06T01:12:38.503Z,11.20
2023-05-06T01:12:48.572Z,12.00
2023-05-06T01:12:58.644Z,10.60
2023-05-06T01:13:08.718Z,12.60
2023-05-06T01:13:18.767Z,12.40
2023-05-06T01:13:28.791Z,13.40
2023-05-06T01:13:38.832Z,11.60
2023-05-06T01:13:48.882Z,12.20
2023-05-06T01:13:58.937Z,13.40
2023-05-06T01:14:08.974Z,14.00
2023-05-06T01:14:19.021Z,13.70
2023-05-06T01:14:29.096Z,12.70
2023-05-06T01:14:39.180Z,14.30
2023-05-06T01:14:49.237Z,15.60
2023-05-06T01:14:59.261Z,16.10
2023-05-06T01:15:09.686Z,17.00
2023-05-06T01:15:19.339Z,15.50
2023-05-06T01:15:29.368Z,15.70
2023-05-06T01:15:39.426Z,12.50
2023-05-06T01:15:49.543Z,11.40
2023-05-06T01:15:59.619Z,11.10
2023-05-06T01:16:09.668Z,11.90
2023-05-06T01:16:19.775Z,13.40
2023-05-06T01:16:29.840Z,11.10
2023-05-06T01:16:39.875Z,10.80
2023-05-06T01:16:49.948Z,11.60
2023-05-06T01:17:00.165Z,12.90
2023-05-06T01:17:10.121Z,12.90
2023-05-06T01:17:20.178Z,10.90
2023-05-06T01:17:30.237Z,11.50
2023-05-06T01:17:40.317Z,11.70
2023-05-06T01:17:50.440Z,14.50
2023-05-06T01:18:00.513Z,13.90
2023-05-06T01:18:10.637Z,13.10
2023-05-06T01:18:20.649Z,10.70
2023-05-06T01:18:30.718Z,11.70
2023-05-06T01:18:40.816Z,12.70
2023-05-06T01:18:50.849Z,12.60
2023-05-06T01:19:00.897Z,11.60
2023-05-06T01:19:10.950Z,11.10
2023-05-06T01:19:20.986Z,12.40
2023-05-06T01:19:31.093Z,12.40
2023-05-06T01:19:41.150Z,13.80
2023-05-06T01:19:51.180Z,12.50
2023-05-06T01:20:01.236Z,13.70
2023-05-06T01:20:11.311Z,12.20
2023-05-06T01:20:21.344Z,12.40
2023-05-06T01:20:31.398Z,11.10
2023-05-06T01:20:41.445Z,11.30
2023-05-06T01:20:51.506Z,10.60
2023-05-06T01:21:01.537Z,13.20
2023-05-06T01:21:11.585Z,14.90
2023-05-06T01:21:21.634Z,15.40
2023-05-06T01:21:31.686Z,13.50
2023-05-06T01:21:41.750Z,11.10
2023-05-06T01:21:51.859Z,10.90
2023-05-06T01:22:01.908Z,12.80
2023-05-06T01:22:12.011Z,14.00
2023-05-06T01:22:22.058Z,14.50
2023-05-06T01:22:32.109Z,12.70
2023-05-06T01:22:42.236Z,12.20
2023-05-06T01:22:52.147Z,11.70
2023-05-06T01:23:02.202Z,10.80
2023-05-06T01:23:12.261Z,11.40
2023-05-06T01:23:22.315Z,12.20
2023-05-06T01:23:32.362Z,13.50
2023-05-06T01:23:42.523Z,13.60
2023-05-06T01:23:52.551Z,13.70
2023-05-06T01:24:02.599Z,13.30
2023-05-06T01:24:12.650Z,12.60
2023-05-06T01:24:22.697Z,12.30
2023-05-06T01:24:32.759Z,11.40
2023-05-06T01:24:42.804Z,12.20
2023-05-06T01:24:52.855Z,10.90
2023-05-06T01:25:02.913Z,12.10
2023-05-06T01:25:12.976Z,12.10
2023-05-06T01:25:23.038Z,13.90
2023-05-06T01:25:33.076Z,13.70
2023-05-06T01:25:43.140Z,12.10
2023-05-06T01:25:53.191Z,11.70
2023-05-06T01:26:03.300Z,11.40
2023-05-06T01:26:13.357Z,10.40
2023-05-06T01:26:23.423Z,10.70
2023-05-06T01:26:33.459Z,10.60
2023-05-06T01:26:43.520Z,10.30
2023-05-06T01:26:53.578Z,11.30
2023-05-06T01:27:03.623Z,11.40
2023-05-06T01:27:13.716Z,11.80
2023-05-06T01:27:23.765Z,11.50
2023-05-06T01:27:33.843Z,11.50
2023-05-06T01:27:43.949Z,12.20
2023-05-06T01:27:54.002Z,12.10
2023-05-06T01:28:04.038Z,13.10
2023-05-06T01:28:14.107Z,14.20
2023-05-06T01:28:24.154Z,15.10
2023-05-06T01:28:34.222Z,14.10
2023-05-06T01:28:44.279Z,13.40
2023-05-06T01:28:54.306Z,11.80
2023-05-06T01:29:04.368Z,11.30
2023-05-06T01:29:14.408Z,10.90
2023-05-06T01:29:24.453Z,10.30
2023-05-06T01:29:34.545Z,10.40
2023-05-06T01:29:44.600Z,10.00
2023-05-06T01:29:54.632Z,11.90
2023-05-06T01:30:04.703Z,12.50
2023-05-06T01:30:14.742Z,13.50
2023-05-06T01:30:24.789Z,11.60
2023-05-06T01:30:34.828Z,11.30
2023-05-06T01:30:44.882Z,9.20
2023-05-06T01:30:54.932Z,10.30
2023-05-06T01:31:05.038Z,9.40
2023-05-06T01:31:15.080Z,10.10
2023-05-06T01:31:25.160Z,9.40
2023-05-06T01:31:35.302Z,10.30
2023-05-06T01:31:45.272Z,12.10
2023-05-06T01:31:55.348Z,14.00
2023-05-06T01:32:05.403Z,12.80
2023-05-06T01:32:15.452Z,11.10
2023-05-06T01:32:25.524Z,9.60
2023-05-06T01:32:35.571Z,10.30
2023-05-06T01:32:45.639Z,10.50
2023-05-06T01:32:55.734Z,11.40
2023-05-06T01:33:05.751Z,11.90
2023-05-06T01:33:15.806Z,11.80
2023-05-06T01:33:25.883Z,11.20
2023-05-06T01:33:35.930Z,10.90
2023-05-06T01:33:45.978Z,12.20
2023-05-06T01:33:56.044Z,11.90
2023-05-06T01:34:06.102Z,12.90
2023-05-06T01:34:16.159Z,11.40
2023-05-06T01:34:26.198Z,13.50
2023-05-06T01:34:36.244Z,13.70
2023-05-06T01:34:46.291Z,14.40
2023-05-06T01:34:56.334Z,12.70
2023-05-06T01:35:06.651Z,12.40
2023-05-06T01:35:16.573Z,13.60
2023-05-06T01:35:26.718Z,12.90
2023-05-06T01:35:36.726Z,11.10
2023-05-06T01:35:46.776Z,9.70
2023-05-06T01:35:56.827Z,10.70
2023-05-06T01:36:06.906Z,12.30
2023-05-06T01:36:16.958Z,11.50
2023-05-06T01:36:27.021Z,11.40
2023-05-06T01:36:37.081Z,11.70
2023-05-06T01:36:47.179Z,12.00
2023-05-06T01:36:57.234Z,12.70
2023-05-06T01:37:07.280Z,12.30
2023-05-06T01:37:17.353Z,12.60
2023-05-06T01:37:27.410Z,13.00
2023-05-06T01:37:37.463Z,11.40
2023-05-06T01:37:47.554Z,13.20
2023-05-06T01:37:57.614Z,12.70
2023-05-06T01:38:07.663Z,15.60
2023-05-06T01:38:17.695Z,14.90
2023-05-06T01:38:27.742Z,16.80
2023-05-06T01:38:37.787Z,14.70
2023-05-06T01:38:47.843Z,12.90
2023-05-06T01:38:57.884Z,11.00
2023-05-06T01:39:07.954Z,11.00
2023-05-06T01:39:17.987Z,13.70
2023-05-06T01:39:28.042Z,14.60
2023-05-06T01:39:38.088Z,14.20
2023-05-06T01:39:48.195Z,14.20
2023-05-06T01:39:58.259Z,13.40
2023-05-06T01:40:08.286Z,14.10
2023-05-06T01:40:18.327Z,10.40
2023-05-06T01:40:28.476Z,9.10
2023-05-06T01:40:38.551Z,9.30
2023-05-06T01:40:48.611Z,11.20
2023-05-06T01:40:58.667Z,11.60
2023-05-06T01:41:08.760Z,10.70
2023-05-06T01:41:18.844Z,9.90
2023-05-06T01:41:28.889Z,11.00
2023-05-06T01:41:38.927Z,10.90
2023-05-06T01:41:49.002Z,11.20
2023-05-06T01:41:59.035Z,11.30
2023-05-06T01:42:09.107Z,12.00
2023-05-06T01:42:19.149Z,11.50
2023-05-06T01:42:29.226Z,12.40
2023-05-06T01:42:39.250Z,17.40
2023-05-06T01:42:49.325Z,17.20
2023-05-06T01:42:59.377Z,15.80
2023-05-06T01:43:09.424Z,10.50
2023-05-06T01:43:19.485Z,9.90
2023-05-06T01:43:29.523Z,10.20
2023-05-06T01:43:39.565Z,9.40
2023-05-06T01:43:49.607Z,10.30
2023-05-06T01:43:59.731Z,11.20
2023-05-06T01:44:09.909Z,14.00
2023-05-06T01:44:19.813Z,15.60
2023-05-06T01:44:29.898Z,15.30
2023-05-06T01:44:39.928Z,13.70
2023-05-06T01:44:49.969Z,12.50
2023-05-06T01:45:00.004Z,11.10
2023-05-06T01:45:10.247Z,10.00
2023-05-06T01:45:20.116Z,8.90
2023-05-06T01:45:30.176Z,9.00
2023-05-06T01:45:40.301Z,11.20
2023-05-06T01:45:50.375Z,11.30
2023-05-06T01:46:00.627Z,11.30
2023-05-06T01:46:10.544Z,10.70
2023-05-06T01:46:20.631Z,11.70
2023-05-06T01:46:30.712Z,12.40
2023-05-06T01:46:40.889Z,14.00
2023-05-06T01:46:50.867Z,15.40
2023-05-06T01:47:00.920Z,16.50
2023-05-06T01:47:10.977Z,15.30
2023-05-06T01:47:21.030Z,13.20
2023-05-06T01:47:31.135Z,12.20
2023-05-06T01:47:41.188Z,12.50
2023-05-06T01:47:51.242Z,14.50
2023-05-06T01:48:01.327Z,13.10
2023-05-06T01:48:11.332Z,12.00
2023-05-06T01:48:21.377Z,11.80
2023-05-06T01:48:31.418Z,11.10
2023-05-06T01:48:41.461Z,12.20
2023-05-06T01:48:51.515Z,12.20
2023-05-06T01:49:01.557Z,14.70
2023-05-06T01:49:11.610Z,15.60
2023-05-06T01:49:21.645Z,14.70
2023-05-06T01:49:31.759Z,12.70
2023-05-06T01:49:41.898Z,9.40
2023-05-06T01:49:51.951Z,9.70
2023-05-06T01:50:02.018Z,11.50
2023-05-06T01:50:12.081Z,13.50
2023-05-06T01:50:22.138Z,13.50
2023-05-06T01:50:32.184Z,13.00
2023-05-06T01:50:42.235Z,12.20
2023-05-06T01:50:52.305Z,11.80
2023-05-06T01:51:02.363Z,11.00
2023-05-06T01:51:12.410Z,10.90
2023-05-06T01:51:22.473Z,11.80
2023-05-06T01:51:32.536Z,11.90
2023-05-06T01:51:42.594Z,12.80
2023-05-06T01:51:52.648Z,12.10
2023-05-06T01:52:02.701Z,11.80
2023-05-06T01:52:12.797Z,11.00
2023-05-06T01:52:22.846Z,10.10
2023-05-06T01:52:32.903Z,10.50
2023-05-06T01:52:42.940Z,11.20
2023-05-06T01:52:52.982Z,12.00
2023-05-06T01:53:03.048Z,11.70
2023-05-06T01:53:13.118Z,10.30
2023-05-06T01:53:23.228Z,10.70
2023-05-06T01:53:33.286Z,12.00
2023-05-06T01:53:43.374Z,11.20
2023-05-06T01:53:53.404Z,12.10
2023-05-06T01:54:03.462Z,12.60
2023-05-06T01:54:13.500Z,14.20
2023-05-06T01:54:23.601Z,12.60
2023-05-06T01:54:33.671Z,11.70
2023-05-06T01:54:43.720Z,12.00
2023-05-06T01:54:53.771Z,12.80
2023-05-06T01:55:03.820Z,13.60
2023-05-06T01:55:13.892Z,12.60
2023-05-06T01:55:23.945Z,12.00
2023-05-06T01:55:34.018Z,10.80
2023-05-06T01:55:44.151Z,11.00
2023-05-06T01:55:54.176Z,12.50
2023-05-06T01:56:04.265Z,13.00
2023-05-06T01:56:14.324Z,14.90
2023-05-06T01:56:24.384Z,12.90
2023-05-06T01:56:34.433Z,13.00
2023-05-06T01:56:44.486Z,13.70
2023-05-06T01:56:54.554Z,15.30
2023-05-06T01:57:04.581Z,15.60
2023-05-06T01:57:14.646Z,15.10
2023-05-06T01:57:24.716Z,15.50
2023-05-06T01:57:34.766Z,13.70
2023-05-06T01:57:44.874Z,11.50
2023-05-06T01:57:54.927Z,11.80
2023-05-06T01:58:04.978Z,11.90
2023-05-06T01:58:15.045Z,12.40
2023-05-06T01:58:25.130Z,11.40
2023-05-06T01:58:35.183Z,12.80
2023-05-06T01:58:45.228Z,11.90
2023-05-06T01:58:55.290Z,12.20
2023-05-06T01:59:05.344Z,10.70
2023-05-06T01:59:15.409Z,12.30
2023-05-06T01:59:25.479Z,14.50
2023-05-06T01:59:35.555Z,16.30
2023-05-06T01:59:45.630Z,15.20
2023-05-06T01:59:55.681Z,16.00
2023-05-06T02:00:05.737Z,15.20
2023-05-06T02:00:15.805Z,15.40
2023-05-06T02:00:25.885Z,13.80
2023-05-06T02:00:35.905Z,14.40
2023-05-06T02:00:45.979Z,14.60
2023-05-06T02:00:55.983Z,13.20
2023-05-06T02:01:06.032Z,18.30
2023-05-06T02:01:16.142Z,19.50
2023-05-06T02:01:26.178Z,20.00
2023-05-06T02:01:36.224Z,14.00
2023-05-06T02:01:46.386Z,12.30
2023-05-06T02:01:56.504Z,12.90
2023-05-06T02:02:06.594Z,13.00
2023-05-06T02:02:16.689Z,13.60
2023-05-06T02:02:26.853Z,14.10
2023-05-06T02:02:37.017Z,13.90
2023-05-06T02:02:47.107Z,13.90
2023-05-06T02:02:57.200Z,12.00
2023-05-06T02:03:07.311Z,12.80
2023-05-06T02:03:17.421Z,12.80
2023-05-06T02:03:27.603Z,15.00
2023-05-06T02:03:37.792Z,15.20
2023-05-06T02:03:47.936Z,15.00
2023-05-06T02:03:57.943Z,14.10
2023-05-06T02:04:08.046Z,15.30
2023-05-06T02:04:18.064Z,15.00
2023-05-06T02:04:28.133Z,14.40
2023-05-06T02:04:38.168Z,12.50
2023-05-06T02:04:48.340Z,14.20
2023-05-06T02:04:58.387Z,14.70
2023-05-06T02:05:08.674Z,14.50
2023-05-06T02:05:18.450Z,13.90
2023-05-06T02:05:28.499Z,12.80
2023-05-06T02:05:38.546Z,13.40
2023-05-06T02:05:48.593Z,12.30
2023-05-06T02:05:58.671Z,13.20
2023-05-06T02:06:08.746Z,14.40
2023-05-06T02:06:18.781Z,15.20
2023-05-06T02:06:28.827Z,16.60
2023-05-06T02:06:38.969Z,14.90
2023-05-06T02:06:49.005Z,15.00
2023-05-06T02:06:59.070Z,12.10
2023-05-06T02:07:09.102Z,14.20
2023-05-06T02:07:19.148Z,13.20
2023-05-06T02:07:29.177Z,14.50
2023-05-06T02:07:39.220Z,12.40
2023-05-06T02:07:49.355Z,12.40
2023-05-06T02:07:59.284Z,11.10
2023-05-06T02:08:09.339Z,13.00
2023-05-06T02:08:19.385Z,12.50
2023-05-06T02:08:29.440Z,13.60
2023-05-06T02:08:39.505Z,14.20
2023-05-06T02:08:49.555Z,13.70
2023-05-06T02:08:59.617Z,16.60
2023-05-06T02:09:09.687Z,15.10
2023-05-06T02:09:19.736Z,15.10
2023-05-06T02:09:29.792Z,11.70
2023-05-06T02:09:39.839Z,11.50